Time;durP1;ratioP1;P1;durP2;ratioP2;P2;SDS_P1;SDS_P2;PMS_P1;PMS_P2;Temp;Humidity;BMP_temperature;BMP_pressure;BME280_temperature;BME280_humidity;BME280_pressure;Samples;Min_cycle;Max_cycle;Signal;HPM_P1;HPM_P2
2022/12/07 00:00:04;;;;;;;25.55;15.02;;;;;;;1.71;100.00;101801.72;5262727;28;20025;-89
2022/12/07 00:02:35;;;;;;;22.65;16.13;;;;;;;1.75;100.00;101799.81;5260726;28;20433;-88
2022/12/07 00:05:07;;;;;;;30.10;16.98;;;;;;;1.63;100.00;101798.53;5277012;28;20374;-88
2022/12/07 00:07:38;;;;;;;23.88;15.65;;;;;;;1.56;100.00;101802.31;5258859;28;20071;-88
2022/12/07 00:10:10;;;;;;;23.25;15.98;;;;;;;1.43;100.00;101791.44;5259186;28;20037;-88
2022/12/07 00:12:44;;;;;;;23.42;16.92;;;;;;;1.39;100.00;101785.44;5268247;28;20386;-88
2022/12/07 00:15:18;;;;;;;26.10;16.92;;;;;;;1.45;100.00;101798.34;5260934;28;20026;-88
2022/12/07 00:17:49;;;;;;;34.55;17.30;;;;;;;1.19;100.00;101791.47;5256681;28;20046;-89
2022/12/07 00:20:21;;;;;;;27.92;17.55;;;;;;;1.21;100.00;101792.28;5273177;28;20036;-89
2022/12/07 00:22:53;;;;;;;26.92;17.27;;;;;;;1.30;100.00;101781.41;5262090;28;20029;-89
2022/12/07 00:25:24;;;;;;;29.42;18.38;;;;;;;1.34;100.00;101778.66;5258245;28;20053;-89
2022/12/07 00:27:56;;;;;;;26.45;16.67;;;;;;;1.24;100.00;101780.78;5259335;28;20470;-89
2022/12/07 00:30:27;;;;;;;32.67;17.30;;;;;;;1.42;100.00;101782.69;5268423;28;20025;-89
2022/12/07 00:32:59;;;;;;;34.80;20.15;;;;;;;1.46;100.00;101778.19;5257249;28;20981;-88
2022/12/07 00:35:30;;;;;;;42.83;23.45;;;;;;;1.56;100.00;101779.53;5262396;28;20025;-89
2022/12/07 00:38:02;;;;;;;30.77;20.70;;;;;;;1.68;100.00;101775.53;5259012;28;20124;-89
2022/12/07 00:40:34;;;;;;;37.38;21.98;;;;;;;1.87;100.00;101779.09;5272103;28;20051;-89
2022/12/07 00:43:05;;;;;;;41.33;24.73;;;;;;;1.79;100.00;101778.59;5260701;28;20368;-89
2022/12/07 00:45:37;;;;;;;38.58;24.95;;;;;;;1.77;100.00;101783.06;5261902;28;20161;-89
2022/12/07 00:48:08;;;;;;;41.80;25.60;;;;;;;1.57;100.00;101770.69;5262319;28;20109;-88
2022/12/07 00:50:40;;;;;;;39.85;24.30;;;;;;;1.57;100.00;101783.84;5255457;28;21107;-89
2022/12/07 00:53:11;;;;;;;37.97;23.15;;;;;;;1.43;100.00;101779.13;5259046;28;20041;-89
2022/12/07 00:55:44;;;;;;;40.75;21.92;;;;;;;1.44;100.00;101780.03;5263364;28;20029;-89
2022/12/07 00:58:16;;;;;;;39.28;22.27;;;;;;;1.29;100.00;101777.03;5258906;28;20041;-89
2022/12/07 01:00:47;;;;;;;35.17;21.15;;;;;;;1.22;100.00;101767.69;5259358;28;20064;-89
2022/12/07 01:03:19;;;;;;;31.05;18.75;;;;;;;1.18;100.00;101773.16;5240817;28;20034;-89
2022/12/07 01:05:53;;;;;;;41.42;21.10;;;;;;;0.96;100.00;101771.31;5277133;28;20398;-89
2022/12/07 01:08:27;;;;;;;24.55;15.57;;;;;;;0.93;100.00;101781.97;5275751;28;20168;-89
2022/12/07 01:11:09;;;;;;;45.65;19.70;;;;;;;0.82;100.00;101769.19;5255314;28;20048;-89
2022/12/07 01:13:41;;;;;;;29.83;18.27;;;;;;;0.85;100.00;101774.34;5271342;28;20029;-89
2022/12/07 01:16:15;;;;;;;32.55;19.10;;;;;;;0.84;100.00;101771.78;5271296;28;20068;-89
2022/12/07 01:18:49;;;;;;;32.33;18.08;;;;;;;0.75;100.00;101773.84;5254782;28;20489;-89
2022/12/07 01:21:23;;;;;;;37.67;19.42;;;;;;;0.64;100.00;101765.50;5256062;28;20033;-88
2022/12/07 01:23:57;;;;;;;29.70;18.80;;;;;;;0.73;100.00;101770.41;5262401;28;20099;-89
2022/12/07 01:26:29;;;;;;;29.98;19.35;;;;;;;1.03;100.00;101774.56;5256262;28;20844;-89
2022/12/07 01:29:00;;;;;;;29.58;19.77;;;;;;;1.10;100.00;101768.16;5256425;28;20029;-89
2022/12/07 01:31:32;;;;;;;37.72;21.27;;;;;;;1.18;100.00;101773.16;5274381;28;20037;-89
2022/12/07 01:34:03;;;;;;;27.83;18.70;;;;;;;1.61;100.00;101772.28;5257316;28;20018;-89
2022/12/07 01:36:36;;;;;;;34.70;20.58;;;;;;;1.83;100.00;101781.94;5257430;28;20072;-89
2022/12/07 01:39:09;;;;;;;42.20;25.00;;;;;;;1.98;100.00;101777.81;5275148;28;20021;-88
2022/12/07 01:41:43;;;;;;;33.10;21.30;;;;;;;2.25;100.00;101775.81;5259473;28;20607;-88
2022/12/07 01:44:32;;;;;;;43.53;25.40;;;;;;;2.24;100.00;101790.75;5258575;28;20524;-88
2022/12/07 01:47:04;;;;;;;35.17;22.63;;;;;;;2.29;100.00;101785.28;5253532;28;20125;-88
2022/12/07 01:49:44;;;;;;;41.97;26.55;;;;;;;2.17;100.00;101784.00;5273914;28;20030;-88
2022/12/07 01:52:22;;;;;;;46.15;26.20;;;;;;;2.14;100.00;101781.53;5255998;28;20034;-88
2022/12/07 01:54:58;;;;;;;38.92;25.65;;;;;;;2.40;100.00;101787.44;5261567;28;20036;-88
2022/12/07 01:57:33;;;;;;;46.45;28.90;;;;;;;2.14;100.00;101780.66;5262632;28;20033;-89
2022/12/07 02:00:07;;;;;;;38.22;26.15;;;;;;;2.08;100.00;101773.88;5264698;28;20089;-88
2022/12/07 02:02:45;;;;;;;41.47;26.85;;;;;;;1.92;100.00;101770.19;5277947;28;20033;-88
2022/12/07 02:05:18;;;;;;;35.00;24.25;;;;;;;1.68;100.00;101768.50;5299598;28;20021;-88
2022/12/07 02:07:52;;;;;;;39.95;24.92;;;;;;;1.56;100.00;101769.00;5287714;28;20041;-89
2022/12/07 02:10:26;;;;;;;36.22;22.90;;;;;;;1.57;100.00;101769.84;5280488;28;20171;-88
2022/12/07 02:13:21;;;;;;;30.00;20.17;;;;;;;1.64;100.00;101766.06;5289612;28;20271;-88
2022/12/07 02:16:17;;;;;;;36.97;23.02;;;;;;;1.63;100.00;101774.84;5274517;28;20033;-88
2022/12/07 02:18:55;;;;;;;37.72;22.38;;;;;;;1.55;100.00;101771.69;5256778;28;20044;-87
2022/12/07 02:22:01;;;;;;;37.25;21.95;;;;;;;1.45;100.00;101765.94;5258355;28;20083;-88
2022/12/07 02:24:58;;;;;;;35.10;21.80;;;;;;;1.43;100.00;101768.63;5255729;28;20465;-88
2022/12/07 02:27:36;;;;;;;32.45;20.50;;;;;;;1.30;100.00;101764.78;5262216;28;20044;-88
2022/12/07 02:30:08;;;;;;;37.50;20.77;;;;;;;1.17;100.00;101763.53;5258288;28;20132;-88
2022/12/07 02:33:07;;;;;;;33.03;20.55;;;;;;;1.07;100.00;101752.50;5257204;28;20064;-88
2022/12/07 02:35:59;;;;;;;31.88;20.13;;;;;;;0.95;100.00;101761.75;5255336;28;20032;-88
2022/12/07 02:38:39;;;;;;;27.73;18.75;;;;;;;1.11;100.00;101756.75;5273370;28;20044;-88
2022/12/07 02:41:24;;;;;;;32.78;20.63;;;;;;;0.99;100.00;101758.06;5269162;28;20025;-88
2022/12/07 02:43:59;;;;;;;31.48;20.70;;;;;;;0.94;100.00;101765.25;5256698;28;20029;-88
2022/12/07 02:46:40;;;;;;;32.40;19.38;;;;;;;0.87;100.00;101762.00;5254954;28;20083;-88
2022/12/07 02:49:36;;;;;;;32.75;19.88;;;;;;;0.87;100.00;101766.41;5235354;28;20128;-88
2022/12/07 02:52:07;;;;;;;31.65;20.33;;;;;;;1.00;100.00;101761.53;5274239;28;20052;-88
2022/12/07 02:54:39;;;;;;;32.47;20.73;;;;;;;1.09;100.00;101762.06;5276541;28;20038;-89
2022/12/07 02:57:29;;;;;;;27.92;17.85;;;;;;;1.31;100.00;101758.59;5240926;28;20320;-89
2022/12/07 03:00:08;;;;;;;41.05;23.60;;;;;;;1.19;100.00;101757.28;5262948;28;20113;-89
2022/12/07 03:03:09;;;;;;;29.05;19.65;;;;;;;1.24;100.00;101767.63;5255460;28;20026;-89
2022/12/07 03:05:51;;;;;;;31.60;19.58;;;;;;;1.36;100.00;101766.31;5253491;28;20481;-89
2022/12/07 03:08:56;;;;;;;28.35;17.00;;;;;;;1.54;100.00;101767.34;5254954;28;20026;-89
2022/12/07 03:11:40;;;;;;;24.00;17.33;;;;;;;1.65;100.00;101768.63;5260689;28;20547;-89
2022/12/07 03:14:26;;;;;;;37.75;23.65;;;;;;;1.56;100.00;101774.28;5263643;28;20112;-89
2022/12/07 03:17:05;;;;;;;36.92;20.92;;;;;;;1.69;100.00;101772.00;5262092;28;20042;-89
2022/12/07 03:19:38;;;;;;;34.80;22.80;;;;;;;1.51;100.00;101763.06;5256309;28;20026;-90
2022/12/07 03:22:12;;;;;;;41.65;22.10;;;;;;;1.19;100.00;101762.53;5274293;28;20044;-89
2022/12/07 03:24:54;;;;;;;36.63;19.83;;;;;;;1.16;100.00;101754.81;5261434;28;20052;-89
2022/12/07 03:27:32;;;;;;;31.85;18.23;;;;;;;1.21;100.00;101757.22;5275705;28;20041;-89
2022/12/07 03:30:07;;;;;;;33.83;19.58;;;;;;;1.21;100.00;101747.59;5257931;28;20053;-89
2022/12/07 03:32:41;;;;;;;36.47;19.80;;;;;;;1.19;100.00;101741.53;5273011;28;20025;-90
2022/12/07 03:35:27;;;;;;;36.70;19.52;;;;;;;1.04;100.00;101748.25;5257154;28;20080;-89
2022/12/07 03:38:06;;;;;;;32.53;18.13;;;;;;;1.08;100.00;101757.72;5259553;28;20040;-89
2022/12/07 03:40:49;;;;;;;30.92;19.17;;;;;;;1.23;100.00;101760.69;5260470;28;20026;-90
2022/12/07 03:43:21;;;;;;;32.13;19.00;;;;;;;1.32;100.00;101762.94;5263482;28;20029;-89
2022/12/07 03:46:01;;;;;;;32.72;18.92;;;;;;;1.41;100.00;101756.47;5261144;28;20053;-89
2022/12/07 03:49:11;;;;;;;37.05;20.15;;;;;;;1.34;100.00;101755.00;5264891;28;20044;-90
2022/12/07 03:51:46;;;;;;;40.03;19.58;;;;;;;1.14;100.00;101756.63;5226227;28;20197;-89
2022/12/07 03:54:28;;;;;;;26.83;18.08;;;;;;;1.22;100.00;101757.19;5259564;28;20084;-89
2022/12/07 03:57:01;;;;;;;41.78;19.05;;;;;;;1.26;100.00;101758.78;5278270;28;20045;-89
2022/12/07 03:59:33;;;;;;;36.78;19.83;;;;;;;1.29;100.00;101763.06;5261764;28;20099;-89
2022/12/07 04:02:07;;;;;;;30.05;17.88;;;;;;;1.27;100.00;101759.63;5260898;28;20056;-89
2022/12/07 04:04:39;;;;;;;27.85;17.52;;;;;;;1.46;100.00;101757.16;5263559;28;20026;-88
2022/12/07 04:07:11;;;;;;;33.10;19.35;;;;;;;1.53;100.00;101757.75;5276986;28;20034;-89
2022/12/07 04:09:42;;;;;;;30.90;19.10;;;;;;;1.64;100.00;101753.75;5266586;28;20022;-90
2022/12/07 04:12:14;;;;;;;27.98;18.23;;;;;;;2.00;100.00;101749.66;5263040;28;20044;-89
2022/12/07 04:14:45;;;;;;;39.65;21.10;;;;;;;1.89;100.00;101751.00;5261898;28;20060;-89
2022/12/07 04:17:16;;;;;;;36.13;20.35;;;;;;;1.86;100.00;101750.25;5260902;28;20038;-89
2022/12/07 04:19:48;;;;;;;35.85;19.67;;;;;;;1.84;100.00;101749.44;5262321;28;20108;-89
2022/12/07 04:22:19;;;;;;;30.88;18.52;;;;;;;1.98;100.00;101755.00;5258711;28;20112;-89
2022/12/07 04:24:51;;;;;;;37.70;19.52;;;;;;;1.93;100.00;101753.47;5260091;28;20077;-89
2022/12/07 04:27:22;;;;;;;35.13;18.30;;;;;;;2.01;100.00;101751.38;5259273;28;20060;-89
2022/12/07 04:29:55;;;;;;;32.42;19.73;;;;;;;2.19;100.00;101750.59;5240563;28;20022;-89
2022/12/07 04:32:26;;;;;;;37.60;19.75;;;;;;;2.07;100.00;101746.72;5275281;28;20410;-89
2022/12/07 04:34:58;;;;;;;28.55;17.00;;;;;;;2.36;100.00;101743.75;5257628;28;20041;-89
2022/12/07 04:37:29;;;;;;;25.23;14.95;;;;;;;2.45;100.00;101736.31;5268284;28;20033;-89
2022/12/07 04:40:01;;;;;;;36.25;19.90;;;;;;;2.40;100.00;101737.41;5267711;28;20032;-88
2022/12/07 04:42:32;;;;;;;26.77;16.70;;;;;;;2.65;100.00;101740.66;5280719;28;20028;-88
2022/12/07 04:45:04;;;;;;;46.95;23.65;;;;;;;2.71;100.00;101736.88;5285263;28;20085;-89
2022/12/07 04:47:36;;;;;;;36.17;17.83;;;;;;;2.95;100.00;101734.91;5284950;28;20030;-88
2022/12/07 04:50:09;;;;;;;34.72;20.52;;;;;;;2.99;100.00;101741.75;5280977;28;20025;-88
2022/12/07 04:52:40;;;;;;;33.85;19.75;;;;;;;3.16;100.00;101745.38;5267602;28;20128;-88
2022/12/07 04:55:15;;;;;;;36.88;22.95;;;;;;;2.98;100.00;101742.69;5277575;28;20106;-89
2022/12/07 04:57:46;;;;;;;43.47;24.25;;;;;;;2.86;100.00;101742.38;5255713;28;20037;-88
2022/12/07 05:00:18;;;;;;;39.70;21.75;;;;;;;2.99;100.00;101730.34;5259056;28;20381;-88
2022/12/07 05:02:50;;;;;;;34.00;19.67;;;;;;;2.84;100.00;101727.50;5260137;28;20034;-88
2022/12/07 05:05:21;;;;;;;36.80;22.42;;;;;;;2.96;100.00;101730.47;5257284;28;20047;-88
2022/12/07 05:07:55;;;;;;;37.28;22.88;;;;;;;2.69;100.00;101730.84;5259286;28;20037;-88
2022/12/07 05:10:27;;;;;;;37.33;22.42;;;;;;;2.68;100.00;101725.63;5274389;28;20083;-88
2022/12/07 05:12:58;;;;;;;36.72;24.23;;;;;;;2.73;100.00;101723.66;5256475;28;20025;-88
2022/12/07 05:15:29;;;;;;;38.40;22.83;;;;;;;2.72;100.00;101727.19;5256015;28;20033;-88
2022/12/07 05:18:03;;;;;;;33.10;22.48;;;;;;;2.58;100.00;101718.16;5275006;28;20490;-88
2022/12/07 05:20:34;;;;;;;31.92;20.80;;;;;;;2.60;100.00;101724.22;5257750;28;20044;-88
2022/12/07 05:23:05;;;;;;;35.08;20.60;;;;;;;2.51;100.00;101729.91;5260121;28;20021;-88
2022/12/07 05:25:38;;;;;;;37.90;19.75;;;;;;;2.43;100.00;101724.09;5262828;28;20418;-88
2022/12/07 05:28:09;;;;;;;31.70;18.23;;;;;;;2.35;100.00;101729.72;5274920;28;20021;-88
2022/12/07 05:30:41;;;;;;;28.27;17.75;;;;;;;2.33;100.00;101718.41;5273293;28;20082;-87
2022/12/07 05:33:12;;;;;;;27.75;15.35;;;;;;;2.34;100.00;101733.28;5258475;28;20018;-88
2022/12/07 05:35:44;;;;;;;25.27;16.55;;;;;;;2.36;100.00;101722.69;5275974;28;20029;-88
2022/12/07 05:38:15;;;;;;;34.15;16.30;;;;;;;2.15;100.00;101727.94;5258211;28;20176;-88
2022/12/07 05:40:47;;;;;;;24.35;14.85;;;;;;;2.15;100.00;101721.84;5257662;28;20116;-88
2022/12/07 05:43:20;;;;;;;30.50;15.13;;;;;;;1.93;100.00;101722.75;5275943;28;20032;-88
2022/12/07 05:45:52;;;;;;;28.20;14.45;;;;;;;1.95;100.00;101715.66;5254659;28;20038;-87
2022/12/07 05:48:24;;;;;;;26.10;14.02;;;;;;;1.76;100.00;101715.56;5257113;28;20025;-88
2022/12/07 05:50:55;;;;;;;20.52;13.77;;;;;;;1.72;100.00;101721.00;5260744;28;20124;-88
2022/12/07 05:53:26;;;;;;;22.83;13.40;;;;;;;1.51;100.00;101721.00;5256460;28;20030;-88
2022/12/07 05:55:58;;;;;;;21.52;11.80;;;;;;;1.35;100.00;101714.63;5262502;28;20060;-87
2022/12/07 06:01:19;;;;;;;19.58;12.35;;;;;;;1.34;100.00;101723.47;5263656;28;20041;-88
2022/12/07 06:03:51;;;;;;;22.60;12.63;;;;;;;1.07;100.00;101708.72;5257629;28;20107;-88
2022/12/07 06:06:22;;;;;;;25.85;12.98;;;;;;;1.05;100.00;101715.81;5261397;28;20409;-88
2022/12/07 06:08:54;;;;;;;21.20;12.07;;;;;;;0.98;100.00;101719.56;5260622;28;21240;-88
2022/12/07 06:14:15;;;;;;;21.02;12.93;;;;;;;1.09;100.00;101719.16;5258608;28;20394;-88
2022/12/07 06:16:47;;;;;;;24.70;13.48;;;;;;;1.13;100.00;101718.13;5274837;28;20048;-88
2022/12/07 06:19:18;;;;;;;25.75;13.10;;;;;;;1.16;100.00;101722.38;5255358;28;20033;-88
2022/12/07 06:21:50;;;;;;;29.45;13.90;;;;;;;0.94;100.00;101720.59;5260280;28;20078;-87
2022/12/07 06:24:22;;;;;;;31.00;13.90;;;;;;;0.69;100.00;101728.56;5260086;28;20050;-88
2022/12/07 06:26:54;;;;;;;22.08;14.93;;;;;;;1.14;100.00;101727.72;5241030;28;20021;-88
2022/12/07 06:29:25;;;;;;;29.08;16.63;;;;;;;1.20;100.00;101724.00;5242985;28;20025;-89
2022/12/07 06:31:56;;;;;;;31.40;17.65;;;;;;;0.91;100.00;101724.22;5239844;28;20375;-89
2022/12/07 06:34:28;;;;;;;34.47;16.40;;;;;;;0.86;100.00;101720.03;5241023;28;20024;-89
2022/12/07 06:37:00;;;;;;;30.02;15.52;;;;;;;1.07;100.00;101727.09;5244890;28;20120;-89
2022/12/07 06:39:31;;;;;;;29.00;14.77;;;;;;;0.97;100.00;101725.75;5244911;28;20088;-88
2022/12/07 06:42:03;;;;;;;31.33;15.77;;;;;;;0.97;100.00;101727.53;5243857;28;20088;-88
2022/12/07 06:44:35;;;;;;;26.85;16.15;;;;;;;0.94;100.00;101723.22;5268332;28;20146;-89
2022/12/07 06:47:07;;;;;;;26.75;16.05;;;;;;;1.15;100.00;101723.31;5262939;28;20354;-89
2022/12/07 06:49:39;;;;;;;35.30;18.60;;;;;;;1.09;100.00;101727.06;5241030;28;20117;-89
2022/12/07 06:52:10;;;;;;;35.40;18.48;;;;;;;1.09;100.00;101729.69;5259779;28;20561;-89
2022/12/07 06:54:42;;;;;;;33.28;18.05;;;;;;;1.32;100.00;101726.16;5259164;28;20022;-88
2022/12/07 06:57:14;;;;;;;33.75;19.05;;;;;;;1.55;100.00;101727.00;5264118;28;20036;-88
2022/12/07 06:59:45;;;;;;;33.08;19.15;;;;;;;1.58;100.00;101726.84;5248910;28;20137;-87
2022/12/07 07:02:17;;;;;;;34.20;21.52;;;;;;;1.65;100.00;101725.69;5241614;28;20029;-87
2022/12/07 07:04:49;;;;;;;43.10;22.52;;;;;;;1.66;100.00;101728.25;5256764;28;20028;-87
2022/12/07 07:07:20;;;;;;;37.67;22.35;;;;;;;1.46;100.00;101728.22;5260705;28;20030;-88
2022/12/07 07:09:52;;;;;;;37.45;20.58;;;;;;;1.49;100.00;101725.44;5262472;28;20033;-88
2022/12/07 07:12:23;;;;;;;37.42;20.77;;;;;;;1.39;100.00;101738.13;5246997;28;20108;-89
2022/12/07 07:14:56;;;;;;;37.65;20.80;;;;;;;1.32;100.00;101731.41;5244655;28;20026;-87
2022/12/07 07:17:27;;;;;;;28.67;19.55;;;;;;;1.39;100.00;101739.91;5262370;28;20072;-87
2022/12/07 07:19:59;;;;;;;33.45;20.35;;;;;;;1.28;100.00;101732.41;5257038;28;20440;-87
2022/12/07 07:22:31;;;;;;;30.88;20.08;;;;;;;1.49;100.00;101739.47;5266618;28;20017;-87
2022/12/07 07:25:03;;;;;;;36.85;21.20;;;;;;;1.40;100.00;101741.59;5296027;28;20049;-87
2022/12/07 07:27:35;;;;;;;32.67;21.30;;;;;;;1.41;100.00;101740.69;5280541;28;20033;-87
2022/12/07 07:30:07;;;;;;;34.47;20.92;;;;;;;1.30;100.00;101734.09;5284992;28;20032;-88
2022/12/07 07:32:39;;;;;;;49.33;22.17;;;;;;;1.32;100.00;101748.03;5266281;28;20021;-86
2022/12/07 07:35:11;;;;;;;35.95;17.42;;;;;;;1.73;100.00;101749.88;5266763;28;20029;-87
2022/12/07 07:37:42;;;;;;;35.83;19.92;;;;;;;2.00;100.00;101742.63;5269333;28;20116;-87
2022/12/07 07:40:14;;;;;;;48.33;22.63;;;;;;;2.11;100.00;101741.31;5261573;28;20504;-87
2022/12/07 07:42:53;;;;;;;38.00;23.05;;;;;;;2.46;100.00;101745.03;5261561;28;20131;-87
2022/12/07 07:45:26;;;;;;;70.43;30.42;;;;;;;2.49;100.00;101738.78;5258381;28;20042;-87
2022/12/07 07:47:58;;;;;;;62.78;30.85;;;;;;;2.37;100.00;101740.19;5257068;28;20526;-87
2022/12/07 07:50:30;;;;;;;52.67;26.90;;;;;;;2.47;100.00;101744.09;5259852;28;20037;-86
2022/12/07 07:53:01;;;;;;;52.50;27.52;;;;;;;2.53;100.00;101743.00;5263216;28;20029;-86
2022/12/07 07:55:32;;;;;;;62.60;31.27;;;;;;;2.31;100.00;101743.94;5261101;28;20048;-86
2022/12/07 07:58:04;;;;;;;47.00;28.20;;;;;;;2.28;100.00;101738.81;5262195;28;20034;-88
2022/12/07 08:00:35;;;;;;;40.13;26.95;;;;;;;2.36;100.00;101736.69;5254397;28;20773;-87
2022/12/07 08:03:07;;;;;;;41.80;26.40;;;;;;;2.34;100.00;101737.69;5261233;28;20018;-87
2022/12/07 08:05:38;;;;;;;43.45;27.20;;;;;;;2.10;100.00;101734.34;5275570;28;20030;-87
2022/12/07 08:08:10;;;;;;;37.63;24.27;;;;;;;1.95;100.00;101747.22;5262167;28;20470;-87
2022/12/07 08:10:41;;;;;;;46.42;32.60;;;;;;;1.92;100.00;101751.78;5259614;28;20030;-86
2022/12/07 08:13:15;;;;;;;55.15;35.55;;;;;;;1.79;100.00;101751.41;5262300;28;20051;-87
2022/12/07 08:15:47;;;;;;;45.25;33.13;;;;;;;1.60;100.00;101752.19;5258971;28;20467;-87
2022/12/07 08:18:19;;;;;;;44.20;28.98;;;;;;;1.44;100.00;101748.47;5261895;28;20037;-87
2022/12/07 08:20:50;;;;;;;41.15;25.40;;;;;;;1.47;100.00;101756.22;5261441;28;20026;-87
2022/12/07 08:23:22;;;;;;;34.97;21.67;;;;;;;1.58;100.00;101767.16;5261979;28;20088;-86
2022/12/07 08:25:54;;;;;;;36.72;22.38;;;;;;;1.69;100.00;101770.22;5239560;28;20093;-87
2022/12/07 08:28:25;;;;;;;32.08;22.73;;;;;;;1.82;100.00;101772.34;5234616;28;20033;-87
2022/12/07 08:31:07;;;;;;;38.47;22.70;;;;;;;2.03;100.00;101768.84;5223733;28;20028;-86
2022/12/07 08:33:38;;;;;;;33.80;22.38;;;;;;;2.08;100.00;101771.25;5242575;28;20379;-86
2022/12/07 08:36:13;;;;;;;39.08;22.58;;;;;;;2.16;100.00;101770.94;5224145;28;20022;-86
2022/12/07 08:38:45;;;;;;;61.22;21.98;;;;;;;2.06;100.00;101771.31;5223227;28;20502;-86
2022/12/07 08:41:17;;;;;;;57.28;23.40;;;;;;;2.18;100.00;101777.00;5235525;28;20054;-86
2022/12/07 08:43:49;;;;;;;80.07;24.20;;;;;;;2.31;100.00;101783.41;5204008;28;20029;-85
2022/12/07 08:46:37;;;;;;;77.13;24.95;;;;;;;2.53;100.00;101772.81;5226352;28;20383;-86
2022/12/07 08:49:17;;;;;;;40.17;22.63;;;;;;;2.75;100.00;101777.13;5222010;28;20113;-86
2022/12/07 08:51:49;;;;;;;33.53;21.80;;;;;;;2.88;100.00;101772.16;5222381;28;20431;-87
2022/12/07 08:54:21;;;;;;;31.45;18.67;;;;;;;3.01;100.00;101776.78;5244870;28;21437;-86
2022/12/07 08:56:54;;;;;;;31.80;19.15;;;;;;;2.98;100.00;101773.44;5226069;28;20121;-86
2022/12/07 08:59:27;;;;;;;29.92;18.08;;;;;;;3.00;100.00;101769.81;5221906;28;20040;-86
2022/12/07 09:01:59;;;;;;;23.23;17.73;;;;;;;2.99;100.00;101767.25;5222957;28;20038;-86
2022/12/07 09:04:31;;;;;;;26.55;17.17;;;;;;;2.97;100.00;101762.03;5222586;28;20034;-85
2022/12/07 09:07:03;;;;;;;23.42;16.85;;;;;;;2.99;100.00;101756.72;5222409;28;20024;-85
2022/12/07 09:09:35;;;;;;;24.85;16.70;;;;;;;3.00;100.00;101754.00;5241497;28;20028;-86
2022/12/07 09:12:07;;;;;;;28.05;17.33;;;;;;;3.04;100.00;101754.72;5239670;28;20090;-86
2022/12/07 09:14:38;;;;;;;28.00;16.90;;;;;;;3.22;100.00;101755.63;5224332;28;20113;-86
2022/12/07 09:17:12;;;;;;;27.73;16.10;;;;;;;3.32;100.00;101754.25;5239394;28;20034;-86
2022/12/07 09:19:44;;;;;;;23.63;15.98;;;;;;;3.36;100.00;101752.34;5222866;28;20026;-86
2022/12/07 09:22:15;;;;;;;23.67;15.07;;;;;;;3.54;100.00;101758.50;5221731;28;20096;-87
2022/12/07 09:24:47;;;;;;;25.50;16.73;;;;;;;3.67;100.00;101754.34;5255119;28;20033;-84
2022/12/07 09:27:19;;;;;;;24.98;14.95;;;;;;;3.74;100.00;101753.09;5277120;28;20029;-87
2022/12/07 09:29:51;;;;;;;23.35;14.45;;;;;;;3.81;100.00;101748.38;5258543;28;20030;-85
2022/12/07 09:32:23;;;;;;;23.20;14.93;;;;;;;3.68;100.00;101750.78;5258977;28;20033;-85
2022/12/07 09:34:55;;;;;;;24.73;15.52;;;;;;;3.74;100.00;101754.91;5266240;28;20061;-86
2022/12/07 09:37:26;;;;;;;28.98;14.82;;;;;;;3.49;100.00;101758.75;5258536;28;20137;-86
2022/12/07 09:39:57;;;;;;;25.52;13.85;;;;;;;3.34;100.00;101762.09;5259042;28;20018;-86
2022/12/07 09:42:45;;;;;;;23.33;13.93;;;;;;;3.31;100.00;101756.97;5258007;28;20037;-86
2022/12/07 09:45:28;;;;;;;25.20;13.77;;;;;;;3.55;100.00;101758.44;5261413;28;20495;-86
2022/12/07 09:48:00;;;;;;;20.08;13.32;;;;;;;3.55;100.00;101757.56;5267218;28;20029;-85
2022/12/07 09:50:34;;;;;;;23.20;13.23;;;;;;;3.66;100.00;101754.41;5265050;28;20458;-85
2022/12/07 09:53:11;;;;;;;22.50;12.48;;;;;;;3.86;100.00;101756.94;5280044;28;30041;-84
2022/12/07 09:56:19;;;;;;;19.02;13.60;;;;;;;4.27;100.00;101756.59;5283138;28;20485;-86
2022/12/07 09:58:59;;;;;;;22.52;13.73;;;;;;;4.69;100.00;101757.06;5266454;28;20083;-86
2022/12/07 10:01:33;;;;;;;22.25;14.30;;;;;;;5.26;100.00;101756.63;5276214;28;20077;-85
2022/12/07 10:04:21;;;;;;;22.70;12.00;;;;;;;5.33;100.00;101754.47;5297081;28;20044;-85
2022/12/07 10:06:53;;;;;;;13.95;9.82;;;;;;;5.16;100.00;101755.44;5277240;28;20466;-86
2022/12/07 10:09:24;;;;;;;14.00;7.43;;;;;;;5.13;100.00;101750.31;5267427;28;20080;-85
2022/12/07 10:12:04;;;;;;;12.88;6.40;;;;;;;5.11;100.00;101742.44;5270289;28;20018;-86
2022/12/07 10:14:38;;;;;;;9.32;5.78;;;;;;;5.44;100.00;101745.00;5281513;28;20017;-87
2022/12/07 10:17:31;;;;;;;10.07;6.00;;;;;;;5.77;100.00;101735.22;5280269;28;20025;-88
2022/12/07 10:20:11;;;;;;;10.55;4.93;;;;;;;5.96;100.00;101732.34;5283303;28;20038;-87
2022/12/07 10:23:02;;;;;;;10.27;5.20;;;;;;;6.35;100.00;101734.41;5280107;28;20108;-88
2022/12/07 10:25:36;;;;;;;6.60;4.50;;;;;;;6.41;100.00;101734.03;5291045;28;20132;-86
2022/12/07 10:28:11;;;;;;;9.05;4.50;;;;;;;6.44;100.00;101725.91;5300659;28;20029;-87
2022/12/07 10:30:52;;;;;;;9.35;4.68;;;;;;;6.46;100.00;101725.81;5281723;28;20031;-86
2022/12/07 10:33:34;;;;;;;11.85;4.03;;;;;;;6.48;100.00;101720.41;5280532;28;20066;-87
2022/12/07 10:36:41;;;;;;;6.30;3.78;;;;;;;6.40;100.00;101711.16;5280382;28;20034;-87
2022/12/07 10:39:16;;;;;;;9.50;3.92;;;;;;;6.05;100.00;101708.00;5179901;28;20032;-87
2022/12/07 10:42:01;;;;;;;11.18;4.47;;;;;;;6.09;100.00;101711.31;5253121;28;20034;-87
2022/12/07 10:44:42;;;;;;;12.73;3.92;;;;;;;6.09;100.00;101711.31;5289525;28;20030;-87
2022/12/07 10:47:24;;;;;;;7.55;4.38;;;;;;;6.31;100.00;101700.25;5285802;28;20029;-86
2022/12/07 10:50:11;;;;;;;9.77;4.50;;;;;;;6.82;100.00;101700.63;5275720;28;20025;-87
2022/12/07 10:53:09;;;;;;;10.70;4.38;;;;;;;7.39;100.00;101697.78;5303880;28;20032;-86
2022/12/07 10:55:40;;;;;;;;;;;;;;;8.23;100.00;101694.88;5291136;28;20029;-86
2022/12/07 10:58:47;;;;;;;9.23;3.60;;;;;;;8.81;100.00;101689.94;5273376;28;20015;-87
2022/12/07 11:01:29;;;;;;;16.95;3.70;;;;;;;9.58;100.00;101686.97;5245397;28;20360;-87
2022/12/07 11:04:26;;;;;;;8.50;3.22;;;;;;;9.75;100.00;101683.88;5273730;28;20482;-87
2022/12/07 11:07:15;;;;;;;8.65;3.65;;;;;;;9.50;100.00;101676.03;5261652;28;20474;-86
2022/12/07 11:09:58;;;;;;;10.10;2.85;;;;;;;9.20;100.00;101680.00;5259942;28;20112;-87
2022/12/07 11:12:37;;;;;;;8.80;2.85;;;;;;;8.73;100.00;101674.53;5260637;28;20080;-86
2022/12/07 11:15:09;;;;;;;5.10;2.63;;;;;;;8.45;100.00;101671.19;5259218;28;20398;-87
2022/12/07 11:17:41;;;;;;;6.40;2.72;;;;;;;8.51;100.00;101668.06;5255757;28;20033;-87
2022/12/07 11:20:49;;;;;;;10.00;3.20;;;;;;;8.65;100.00;101664.44;5275635;28;20366;-87
2022/12/07 11:23:46;;;;;;;12.00;3.00;;;;;;;8.53;100.00;101662.66;5245520;28;20378;-87
2022/12/07 11:26:55;;;;;;;7.68;2.22;;;;;;;8.41;100.00;101661.66;5259848;28;20049;-87
2022/12/07 11:29:40;;;;;;;10.40;3.05;;;;;;;8.32;100.00;101657.00;5243522;28;20153;-87
2022/12/07 11:32:33;;;;;;;5.93;2.53;;;;;;;8.29;100.00;101652.78;5243219;28;20522;-87
2022/12/07 11:35:40;;;;;;;6.63;2.60;;;;;;;8.48;100.00;101651.47;5241830;28;20055;-87
2022/12/07 11:38:20;;;;;;;10.85;3.45;;;;;;;8.23;100.00;101644.38;5241836;28;20030;-86
2022/12/07 11:41:12;;;;;;;10.57;3.05;;;;;;;8.11;100.00;101646.91;5225605;28;20121;-86
2022/12/07 11:44:06;;;;;;;6.38;3.28;;;;;;;8.20;100.00;101645.41;5226502;28;20217;-87
2022/12/07 11:46:58;;;;;;;10.10;3.40;;;;;;;8.13;100.00;101650.34;5227106;28;20014;-87
2022/12/07 11:49:56;;;;;;;5.53;2.20;;;;;;;8.00;100.00;101652.13;5226401;28;20506;-86
2022/12/07 11:52:36;;;;;;;5.35;2.30;;;;;;;7.65;100.00;101647.41;5227100;28;20026;-87
2022/12/07 11:55:21;;;;;;;3.80;2.00;;;;;;;7.62;100.00;101650.28;5226809;28;20022;-86
2022/12/07 11:58:03;;;;;;;5.80;2.30;;;;;;;7.50;100.00;101644.00;5226614;28;20025;-86